createdAt,value
2022-08-23T00:00:20.055Z,25.42
2022-08-23T00:00:51.492Z,25.41
2022-08-23T00:01:23.994Z,25.41
2022-08-23T00:01:55.804Z,25.41
2022-08-23T00:02:27.362Z,25.42
2022-08-23T00:02:58.949Z,25.41
2022-08-23T00:03:31.446Z,25.41
2022-08-23T00:04:02.880Z,25.41
2022-08-23T00:04:35.206Z,25.39
2022-08-23T00:05:09.019Z,25.39
2022-08-23T00:05:41.233Z,25.39
2022-08-23T00:06:12.680Z,25.39
2022-08-23T00:06:44.117Z,25.38
2022-08-23T00:07:15.554Z,25.38
2022-08-23T00:07:46.975Z,25.38
2022-08-23T00:08:18.620Z,25.37
2022-08-23T00:08:50.044Z,25.37
2022-08-23T00:09:21.469Z,25.37
2022-08-23T00:09:52.904Z,25.37
2022-08-23T00:10:24.332Z,25.37
2022-08-23T00:10:55.769Z,25.36
2022-08-23T00:11:27.199Z,25.35
2022-08-23T00:11:58.636Z,25.35
2022-08-23T00:12:30.063Z,25.35
2022-08-23T00:13:01.484Z,25.35
2022-08-23T00:13:48.085Z,25.34
2022-08-23T00:14:19.765Z,25.33
2022-08-23T00:14:51.193Z,25.34
2022-08-23T00:15:23.699Z,25.33
2022-08-23T00:15:55.136Z,25.32
2022-08-23T00:16:26.564Z,25.33
2022-08-23T00:16:58.008Z,25.32
2022-08-23T00:17:34.441Z,25.32
2022-08-23T00:18:06.289Z,25.31
2022-08-23T00:18:37.842Z,25.31
2022-08-23T00:19:09.271Z,25.31
2022-08-23T00:19:40.700Z,25.31
2022-08-23T00:20:12.124Z,25.30
2022-08-23T00:20:43.581Z,25.30
2022-08-23T00:21:15.023Z,25.30
2022-08-23T00:21:46.457Z,25.29
2022-08-23T00:22:17.889Z,25.29
2022-08-23T00:22:49.372Z,25.30
2022-08-23T00:23:20.800Z,25.29
2022-08-23T00:23:52.302Z,25.29
2022-08-23T00:24:23.733Z,25.29
2022-08-23T00:24:55.163Z,25.29
2022-08-23T00:25:26.593Z,25.28
2022-08-23T00:25:58.026Z,25.28
2022-08-23T00:26:29.458Z,25.27
2022-08-23T00:27:00.888Z,25.27
2022-08-23T00:27:32.313Z,25.26
2022-08-23T00:28:03.751Z,25.27
2022-08-23T00:28:42.863Z,25.26
2022-08-23T00:29:14.306Z,25.27
2022-08-23T00:29:45.744Z,25.25
2022-08-23T00:30:17.170Z,25.25
2022-08-23T00:30:48.606Z,25.25
2022-08-23T00:31:20.045Z,25.24
2022-08-23T00:31:51.483Z,25.24
2022-08-23T00:32:22.913Z,25.24
2022-08-23T00:32:56.963Z,25.24
2022-08-23T00:33:29.543Z,25.23
2022-08-23T00:34:01.071Z,25.24
2022-08-23T00:34:32.981Z,25.24
2022-08-23T00:35:04.480Z,25.22
2022-08-23T00:35:35.907Z,25.22
2022-08-23T00:36:07.342Z,25.23
2022-08-23T00:36:38.772Z,25.22
2022-08-23T00:37:10.197Z,25.22
2022-08-23T00:37:41.616Z,25.21
2022-08-23T00:38:33.956Z,25.21
2022-08-23T00:39:04.585Z,25.20
2022-08-23T00:39:36.015Z,25.21
2022-08-23T00:40:07.518Z,25.20
2022-08-23T00:40:38.980Z,25.21
2022-08-23T00:41:10.411Z,25.20
2022-08-23T00:41:41.843Z,25.20
2022-08-23T00:42:13.272Z,25.19
2022-08-23T00:42:44.707Z,25.19
2022-08-23T00:43:16.142Z,25.19
2022-08-23T00:43:47.583Z,25.18
2022-08-23T00:44:19.056Z,25.19
2022-08-23T00:44:50.479Z,25.18
2022-08-23T00:45:21.899Z,25.17
2022-08-23T00:45:54.095Z,25.18
2022-08-23T00:46:25.523Z,25.18
2022-08-23T00:46:56.953Z,25.16
2022-08-23T00:47:28.390Z,25.16
2022-08-23T00:47:59.899Z,25.16
2022-08-23T00:48:31.415Z,25.17
2022-08-23T00:49:02.848Z,25.16
2022-08-23T00:49:34.331Z,25.16
2022-08-23T00:50:05.762Z,25.15
2022-08-23T00:50:55.388Z,25.14
2022-08-23T00:51:26.817Z,25.15
2022-08-23T00:51:58.251Z,25.14
2022-08-23T00:52:29.677Z,25.15
2022-08-23T00:53:01.101Z,25.15
2022-08-23T00:53:32.527Z,25.15
2022-08-23T00:54:03.952Z,25.13
2022-08-23T00:54:35.498Z,25.14
2022-08-23T00:55:06.926Z,25.14
2022-08-23T00:55:38.353Z,25.12
2022-08-23T00:56:09.780Z,25.12
2022-08-23T00:56:41.206Z,25.12
2022-08-23T00:57:12.632Z,25.12
2022-08-23T00:57:44.069Z,25.12
2022-08-23T00:58:18.355Z,25.11
2022-08-23T00:58:49.803Z,25.11
2022-08-23T00:59:21.233Z,25.11
2022-08-23T00:59:52.740Z,25.11
2022-08-23T01:00:24.204Z,25.12
2022-08-23T01:00:55.643Z,25.11
2022-08-23T01:01:27.089Z,25.11
2022-08-23T01:01:58.668Z,25.10
2022-08-23T01:02:30.150Z,25.11
2022-08-23T01:03:02.113Z,25.10
2022-08-23T01:03:38.548Z,25.11
2022-08-23T01:04:10.628Z,25.09
2022-08-23T01:04:42.054Z,25.10
2022-08-23T01:05:13.525Z,25.09
2022-08-23T01:05:44.950Z,25.09
2022-08-23T01:06:16.385Z,25.08
2022-08-23T01:06:47.813Z,25.09
2022-08-23T01:07:19.257Z,25.10
2022-08-23T01:07:50.692Z,25.08
2022-08-23T01:08:22.116Z,25.09
2022-08-23T01:08:53.545Z,25.08
2022-08-23T01:09:25.047Z,25.08
2022-08-23T01:09:56.485Z,25.08
2022-08-23T01:10:28.024Z,25.08
2022-08-23T01:11:00.280Z,25.08
2022-08-23T01:11:31.713Z,25.07
2022-08-23T01:12:03.144Z,25.06
2022-08-23T01:12:34.573Z,25.06
2022-08-23T01:13:06.004Z,25.07
2022-08-23T01:13:37.437Z,25.05
2022-08-23T01:14:08.865Z,25.05
2022-08-23T01:14:40.293Z,25.05
2022-08-23T01:15:11.723Z,25.06
2022-08-23T01:15:43.199Z,25.05
2022-08-23T01:16:14.621Z,25.05
2022-08-23T01:16:46.055Z,25.04
2022-08-23T01:17:17.491Z,25.04
2022-08-23T01:17:48.921Z,25.04
2022-08-23T01:18:20.352Z,25.04
2022-08-23T01:18:51.776Z,25.04
2022-08-23T01:19:23.207Z,25.03
2022-08-23T01:19:54.636Z,25.03
2022-08-23T01:20:26.909Z,25.03
2022-08-23T01:20:58.695Z,25.02
2022-08-23T01:21:31.234Z,25.03
2022-08-23T01:22:02.969Z,25.02
2022-08-23T01:22:34.405Z,25.02
2022-08-23T01:23:05.831Z,25.03
2022-08-23T01:23:37.264Z,25.01
2022-08-23T01:24:08.697Z,25.02
2022-08-23T01:24:56.496Z,25.02
2022-08-23T01:25:31.659Z,25.02
2022-08-23T01:26:03.107Z,25.01
2022-08-23T01:26:34.528Z,25.01
2022-08-23T01:27:05.960Z,25.01
2022-08-23T01:27:37.384Z,25.00
2022-08-23T01:28:08.861Z,25.00
2022-08-23T01:28:40.291Z,25.01
2022-08-23T01:29:11.716Z,25.01
2022-08-23T01:29:43.152Z,25.01
2022-08-23T01:30:14.601Z,25.01
2022-08-23T01:30:46.044Z,25.00
2022-08-23T01:31:17.506Z,25.00
2022-08-23T01:31:48.937Z,25.00
2022-08-23T01:32:20.376Z,25.01
2022-08-23T01:32:51.813Z,25.00
2022-08-23T01:33:23.241Z,25.00
2022-08-23T01:33:54.735Z,24.99
2022-08-23T01:34:26.172Z,24.98
2022-08-23T01:34:57.606Z,24.98
2022-08-23T01:35:29.055Z,24.98
2022-08-23T01:36:00.485Z,24.99
2022-08-23T01:36:35.683Z,24.97
2022-08-23T01:37:07.118Z,24.97
2022-08-23T01:37:38.556Z,24.98
2022-08-23T01:38:10.013Z,24.97
2022-08-23T01:38:41.446Z,24.98
2022-08-23T01:39:12.876Z,24.96
2022-08-23T01:39:44.325Z,24.96
2022-08-23T01:40:16.569Z,24.96
2022-08-23T01:40:48.032Z,24.96
2022-08-23T01:41:19.465Z,24.96
2022-08-23T01:41:51.040Z,24.96
2022-08-23T01:42:22.473Z,24.95
2022-08-23T01:42:53.915Z,24.95
2022-08-23T01:43:25.340Z,24.95
2022-08-23T01:43:56.777Z,24.95
2022-08-23T01:44:28.212Z,24.94
2022-08-23T01:45:00.659Z,24.94
2022-08-23T01:45:32.114Z,24.94
2022-08-23T01:46:03.546Z,24.93
2022-08-23T01:46:34.974Z,24.94
2022-08-23T01:47:06.536Z,24.93
2022-08-23T01:47:37.964Z,24.92
2022-08-23T01:48:09.396Z,24.93
2022-08-23T01:48:40.829Z,24.93
2022-08-23T01:49:12.257Z,24.93
2022-08-23T01:49:43.684Z,24.92
2022-08-23T01:50:15.107Z,24.92
2022-08-23T01:50:46.537Z,24.92
2022-08-23T01:51:17.976Z,24.91
2022-08-23T01:51:49.399Z,24.92
2022-08-23T01:52:20.900Z,24.91
2022-08-23T01:52:52.331Z,24.91
2022-08-23T01:53:23.755Z,24.91
2022-08-23T01:53:55.185Z,24.91
2022-08-23T01:54:29.645Z,24.91
2022-08-23T01:55:01.081Z,24.91
2022-08-23T01:55:32.516Z,24.90
2022-08-23T01:56:03.945Z,24.90
2022-08-23T01:56:39.109Z,24.89
2022-08-23T01:57:10.878Z,24.90
2022-08-23T01:57:42.444Z,24.89
2022-08-23T01:58:16.930Z,24.90
2022-08-23T01:58:48.361Z,24.89
2022-08-23T01:59:19.787Z,24.88
2022-08-23T01:59:51.218Z,24.89
2022-08-23T02:00:22.650Z,24.89
2022-08-23T02:00:54.086Z,24.88
2022-08-23T02:01:25.532Z,24.89
2022-08-23T02:01:59.235Z,24.88
2022-08-23T02:02:30.695Z,24.88
2022-08-23T02:03:02.295Z,24.88
2022-08-23T02:03:33.791Z,24.88
2022-08-23T02:04:05.503Z,24.88
2022-08-23T02:04:37.007Z,24.87
2022-08-23T02:05:08.432Z,24.87
2022-08-23T02:05:39.897Z,24.87
2022-08-23T02:06:11.336Z,24.86
2022-08-23T02:06:42.764Z,24.87
2022-08-23T02:07:14.198Z,24.86
2022-08-23T02:07:45.629Z,24.86
2022-08-23T02:08:17.216Z,24.86
2022-08-23T02:08:48.650Z,24.86
2022-08-23T02:09:25.671Z,24.86
2022-08-23T02:09:57.252Z,24.86
2022-08-23T02:10:28.681Z,24.85
2022-08-23T02:11:00.189Z,24.85
2022-08-23T02:11:31.611Z,24.84
2022-08-23T02:12:03.052Z,24.82
2022-08-23T02:12:34.490Z,24.83
2022-08-23T02:13:05.941Z,24.83
2022-08-23T02:13:37.428Z,24.83
2022-08-23T02:14:08.861Z,24.83
2022-08-23T02:14:40.790Z,24.85
2022-08-23T02:15:12.251Z,24.82
2022-08-23T02:15:43.682Z,24.82
2022-08-23T02:16:15.185Z,24.82
2022-08-23T02:16:59.956Z,24.81
2022-08-23T02:17:36.160Z,24.81
2022-08-23T02:18:07.586Z,24.80
2022-08-23T02:18:39.164Z,24.81
2022-08-23T02:19:10.595Z,24.81
2022-08-23T02:19:42.069Z,24.80
2022-08-23T02:20:13.500Z,24.81
2022-08-23T02:20:44.937Z,24.81
2022-08-23T02:21:16.367Z,24.80
2022-08-23T02:21:47.793Z,24.80
2022-08-23T02:22:19.216Z,24.80
2022-08-23T02:22:50.645Z,24.80
2022-08-23T02:23:22.067Z,24.80
2022-08-23T02:23:53.563Z,24.79
2022-08-23T02:24:24.987Z,24.80
2022-08-23T02:24:56.423Z,24.79
2022-08-23T02:25:27.856Z,24.79
2022-08-23T02:25:59.290Z,24.79
2022-08-23T02:26:31.285Z,24.78
2022-08-23T02:27:02.849Z,24.78
2022-08-23T02:27:34.282Z,24.78
2022-08-23T02:28:05.719Z,24.79
2022-08-23T02:28:37.148Z,24.79
2022-08-23T02:29:08.644Z,24.77
2022-08-23T02:29:40.079Z,24.77
2022-08-23T02:30:11.532Z,24.77
2022-08-23T02:30:42.965Z,24.78
2022-08-23T02:31:16.395Z,24.77
2022-08-23T02:31:50.780Z,24.77
2022-08-23T02:32:22.214Z,24.77
2022-08-23T02:32:58.433Z,24.76
2022-08-23T02:33:31.199Z,24.77
2022-08-23T02:34:02.921Z,24.76
2022-08-23T02:34:35.305Z,24.77
2022-08-23T02:35:06.726Z,24.75
2022-08-23T02:35:38.171Z,24.76
2022-08-23T02:36:09.622Z,24.75
2022-08-23T02:36:41.079Z,24.76
2022-08-23T02:37:12.513Z,24.75
2022-08-23T02:37:43.946Z,24.75
2022-08-23T02:38:15.371Z,24.75
2022-08-23T02:38:46.800Z,24.75
2022-08-23T02:39:18.228Z,24.74
2022-08-23T02:39:49.816Z,24.75
2022-08-23T02:40:21.280Z,24.75
2022-08-23T02:41:00.570Z,24.74
2022-08-23T02:41:32.315Z,24.74
2022-08-23T02:42:03.751Z,24.73
2022-08-23T02:42:35.180Z,24.74
2022-08-23T02:43:06.606Z,24.72
2022-08-23T02:43:40.904Z,24.72
2022-08-23T02:44:12.592Z,24.72
2022-08-23T02:44:44.017Z,24.72
2022-08-23T02:45:15.502Z,24.72
2022-08-23T02:45:46.993Z,24.71
2022-08-23T02:46:18.421Z,24.72
2022-08-23T02:46:49.854Z,24.72
2022-08-23T02:47:21.284Z,24.71
2022-08-23T02:47:52.713Z,24.72
2022-08-23T02:48:24.148Z,24.71
2022-08-23T02:48:55.577Z,24.71
2022-08-23T02:49:27.008Z,24.71
2022-08-23T02:49:58.480Z,24.71
2022-08-23T02:50:29.912Z,24.70
2022-08-23T02:51:01.335Z,24.69
2022-08-23T02:51:32.766Z,24.69
2022-08-23T02:52:04.196Z,24.68
2022-08-23T02:52:35.632Z,24.69
2022-08-23T02:53:07.066Z,24.68
2022-08-23T02:53:38.505Z,24.69
2022-08-23T02:54:09.937Z,24.68
2022-08-23T02:54:41.364Z,24.69
2022-08-23T02:55:12.914Z,24.68
2022-08-23T02:55:44.348Z,24.69
2022-08-23T02:56:21.653Z,24.67
2022-08-23T02:56:53.403Z,24.69
2022-08-23T02:57:24.830Z,24.68
2022-08-23T02:57:56.722Z,24.68
2022-08-23T02:58:28.152Z,24.67
2022-08-23T02:58:59.581Z,24.68
2022-08-23T02:59:31.013Z,24.67
2022-08-23T03:00:02.443Z,24.67
2022-08-23T03:00:34.805Z,24.66
2022-08-23T03:01:06.230Z,24.66
2022-08-23T03:01:37.657Z,24.66
2022-08-23T03:02:09.129Z,24.67
2022-08-23T03:02:40.655Z,24.66
2022-08-23T03:03:12.139Z,24.66
2022-08-23T03:03:43.564Z,24.66
2022-08-23T03:04:14.997Z,24.65
2022-08-23T03:04:46.443Z,24.65
2022-08-23T03:05:18.296Z,24.65
2022-08-23T03:05:49.836Z,24.65
2022-08-23T03:06:25.696Z,24.65
2022-08-23T03:06:57.805Z,24.65
2022-08-23T03:07:29.233Z,24.64
2022-08-23T03:08:00.746Z,24.65
2022-08-23T03:08:32.280Z,24.65
2022-08-23T03:09:03.704Z,24.64
2022-08-23T03:09:35.161Z,24.64
2022-08-23T03:10:06.588Z,24.65
2022-08-23T03:10:38.018Z,24.64
2022-08-23T03:11:09.853Z,24.63
2022-08-23T03:11:41.372Z,24.64
2022-08-23T03:12:12.808Z,24.63
2022-08-23T03:12:44.246Z,24.63
2022-08-23T03:13:15.673Z,24.63
2022-08-23T03:13:47.105Z,24.63
2022-08-23T03:14:18.531Z,24.62
2022-08-23T03:14:50.018Z,24.62
2022-08-23T03:15:21.456Z,24.62
2022-08-23T03:15:52.886Z,24.62
2022-08-23T03:16:24.337Z,24.61
2022-08-23T03:16:57.481Z,24.62
2022-08-23T03:17:29.938Z,24.62
2022-08-23T03:18:01.579Z,24.61
2022-08-23T03:18:33.151Z,24.61
2022-08-23T03:19:04.657Z,24.60
2022-08-23T03:19:36.092Z,24.60
2022-08-23T03:20:07.530Z,24.60
2022-08-23T03:20:38.956Z,24.60
2022-08-23T03:21:10.504Z,24.59
2022-08-23T03:21:41.931Z,24.59
2022-08-23T03:22:14.890Z,24.59
2022-08-23T03:22:54.317Z,24.60
2022-08-23T03:23:26.437Z,24.59
2022-08-23T03:23:57.861Z,24.60
2022-08-23T03:24:29.289Z,24.59
2022-08-23T03:25:00.712Z,24.59
2022-08-23T03:25:32.146Z,24.59
2022-08-23T03:26:03.587Z,24.59
2022-08-23T03:26:35.116Z,24.59
2022-08-23T03:27:06.539Z,24.58
2022-08-23T03:27:38.427Z,24.59
2022-08-23T03:28:16.546Z,24.58
2022-08-23T03:28:47.976Z,24.57
2022-08-23T03:29:19.406Z,24.57
2022-08-23T03:29:50.849Z,24.57
2022-08-23T03:30:22.287Z,24.57
2022-08-23T03:30:53.716Z,24.57
2022-08-23T03:31:25.213Z,24.57
2022-08-23T03:31:59.165Z,24.55
2022-08-23T03:32:30.595Z,24.56
2022-08-23T03:33:02.024Z,24.55
2022-08-23T03:33:33.457Z,24.57
2022-08-23T03:34:04.883Z,24.55
2022-08-23T03:34:36.308Z,24.56
2022-08-23T03:35:11.060Z,24.54
2022-08-23T03:35:46.764Z,24.55
2022-08-23T03:36:18.187Z,24.54
2022-08-23T03:36:49.654Z,24.55
2022-08-23T03:37:21.081Z,24.54
2022-08-23T03:37:55.213Z,24.54
2022-08-23T03:38:26.857Z,24.54
2022-08-23T03:38:58.280Z,24.54
2022-08-23T03:39:29.703Z,24.53
2022-08-23T03:40:01.188Z,24.54
2022-08-23T03:40:32.643Z,24.54
2022-08-23T03:41:04.071Z,24.54
2022-08-23T03:41:35.497Z,24.54
2022-08-23T03:42:06.947Z,24.54
2022-08-23T03:42:38.367Z,24.53
2022-08-23T03:43:09.791Z,24.54
2022-08-23T03:43:41.215Z,24.54
2022-08-23T03:44:12.719Z,24.52
2022-08-23T03:44:44.153Z,24.53
2022-08-23T03:45:15.581Z,24.52
2022-08-23T03:45:47.017Z,24.52
2022-08-23T03:46:18.448Z,24.52
2022-08-23T03:46:49.878Z,24.52
2022-08-23T03:47:21.424Z,24.52
2022-08-23T03:47:55.394Z,24.52
2022-08-23T03:48:26.878Z,24.51
2022-08-23T03:48:58.392Z,24.51
2022-08-23T03:49:29.834Z,24.52
2022-08-23T03:50:01.269Z,24.51
2022-08-23T03:50:32.691Z,24.52
2022-08-23T03:51:04.119Z,24.51
2022-08-23T03:51:35.554Z,24.51
2022-08-23T03:52:06.987Z,24.51
2022-08-23T03:52:38.469Z,24.50
2022-08-23T03:53:12.262Z,24.51
2022-08-23T03:53:43.848Z,24.51
2022-08-23T03:54:15.278Z,24.51
2022-08-23T03:54:46.707Z,24.50
2022-08-23T03:55:18.140Z,24.51
2022-08-23T03:55:49.573Z,24.49
2022-08-23T03:56:21.005Z,24.50
2022-08-23T03:56:52.447Z,24.50
2022-08-23T03:57:23.875Z,24.50
2022-08-23T03:57:55.423Z,24.49
2022-08-23T03:58:26.855Z,24.49
2022-08-23T03:58:58.276Z,24.49
2022-08-23T03:59:29.696Z,24.50
2022-08-23T04:00:01.130Z,24.49
2022-08-23T04:00:32.558Z,24.49
2022-08-23T04:01:03.985Z,24.49
2022-08-23T04:01:35.430Z,24.48
2022-08-23T04:02:06.975Z,24.48
2022-08-23T04:02:38.446Z,24.47
2022-08-23T04:03:09.956Z,24.48
2022-08-23T04:03:41.389Z,24.47
2022-08-23T04:04:12.816Z,24.47
2022-08-23T04:04:44.247Z,24.48
2022-08-23T04:05:15.679Z,24.47
2022-08-23T04:05:47.104Z,24.47
2022-08-23T04:06:18.531Z,24.47
2022-08-23T04:06:49.964Z,24.47
2022-08-23T04:07:21.395Z,24.47
2022-08-23T04:07:52.829Z,24.47
2022-08-23T04:08:33.339Z,24.47
2022-08-23T04:09:05.438Z,24.47
2022-08-23T04:09:36.863Z,24.46
2022-08-23T04:10:08.283Z,24.47
2022-08-23T04:10:39.778Z,24.46
2022-08-23T04:11:11.200Z,24.46
2022-08-23T04:11:42.633Z,24.45
2022-08-23T04:12:17.773Z,24.46
2022-08-23T04:12:49.411Z,24.45
2022-08-23T04:13:20.838Z,24.44
2022-08-23T04:13:52.317Z,24.45
2022-08-23T04:14:23.748Z,24.45
2022-08-23T04:14:55.173Z,24.44
2022-08-23T04:15:26.605Z,24.45
2022-08-23T04:15:58.033Z,24.43
2022-08-23T04:16:29.460Z,24.44
2022-08-23T04:17:00.889Z,24.44
2022-08-23T04:17:32.776Z,24.44
2022-08-23T04:18:04.247Z,24.43
2022-08-23T04:18:35.691Z,24.43
2022-08-23T04:19:07.112Z,24.43
2022-08-23T04:19:40.298Z,24.44
2022-08-23T04:20:11.729Z,24.43
2022-08-23T04:20:43.161Z,24.43
2022-08-23T04:21:14.584Z,24.43
2022-08-23T04:21:46.013Z,24.43
2022-08-23T04:22:17.445Z,24.43
2022-08-23T04:22:48.886Z,24.43
2022-08-23T04:23:20.321Z,24.42
2022-08-23T04:23:51.856Z,24.43
2022-08-23T04:24:23.280Z,24.42
2022-08-23T04:24:54.711Z,24.41
2022-08-23T04:25:33.904Z,24.42
2022-08-23T04:26:06.825Z,24.41
2022-08-23T04:26:41.306Z,24.42
2022-08-23T04:27:14.933Z,24.41
2022-08-23T04:27:46.368Z,24.42
2022-08-23T04:28:17.797Z,24.41
2022-08-23T04:28:49.323Z,24.40
2022-08-23T04:29:33.808Z,24.39
2022-08-23T04:30:05.566Z,24.40
2022-08-23T04:30:39.829Z,24.40
2022-08-23T04:31:11.259Z,24.41
2022-08-23T04:31:42.687Z,24.41
2022-08-23T04:32:15.078Z,24.41
2022-08-23T04:32:58.168Z,24.39
2022-08-23T04:33:29.923Z,24.39
2022-08-23T04:34:03.070Z,24.39
2022-08-23T04:34:35.393Z,24.39
2022-08-23T04:35:07.032Z,24.39
2022-08-23T04:35:38.462Z,24.38
2022-08-23T04:36:09.947Z,24.38
2022-08-23T04:36:41.375Z,24.38
2022-08-23T04:37:17.458Z,24.37
2022-08-23T04:37:48.887Z,24.38
2022-08-23T04:38:24.876Z,24.38
2022-08-23T04:38:56.793Z,24.37
2022-08-23T04:39:28.297Z,24.38
2022-08-23T04:39:59.799Z,24.38
2022-08-23T04:40:31.299Z,24.38
2022-08-23T04:41:02.761Z,24.38
2022-08-23T04:41:42.709Z,24.37
2022-08-23T04:42:15.011Z,24.38
2022-08-23T04:42:46.559Z,24.38
2022-08-23T04:43:17.993Z,24.37
2022-08-23T04:43:49.428Z,24.38
2022-08-23T04:44:20.867Z,24.38
2022-08-23T04:44:52.456Z,24.37
2022-08-23T04:45:23.886Z,24.37
2022-08-23T04:45:55.320Z,24.37
2022-08-23T04:46:26.749Z,24.36
2022-08-23T04:46:58.179Z,24.36
2022-08-23T04:47:29.770Z,24.36
2022-08-23T04:48:01.420Z,24.36
2022-08-23T04:48:32.926Z,24.36
2022-08-23T04:49:04.353Z,24.35
2022-08-23T04:49:35.787Z,24.35
2022-08-23T04:50:07.274Z,24.36
2022-08-23T04:50:38.713Z,24.34
2022-08-23T04:51:10.153Z,24.35
2022-08-23T04:51:41.575Z,24.35
2022-08-23T04:52:23.293Z,24.34
2022-08-23T04:52:54.727Z,24.35
2022-08-23T04:53:26.150Z,24.34
2022-08-23T04:53:57.580Z,24.35
2022-08-23T04:54:29.014Z,24.34
2022-08-23T04:55:00.458Z,24.34
2022-08-23T04:55:31.988Z,24.34
2022-08-23T04:56:07.740Z,24.34
2022-08-23T04:56:39.173Z,24.35
2022-08-23T04:57:10.608Z,24.34
2022-08-23T04:57:42.041Z,24.35
2022-08-23T04:58:13.475Z,24.35
2022-08-23T04:58:44.908Z,24.34
2022-08-23T04:59:16.336Z,24.35
2022-08-23T04:59:47.769Z,24.34
2022-08-23T05:00:19.195Z,24.34
2022-08-23T05:00:51.556Z,24.34
2022-08-23T05:01:23.282Z,24.33
2022-08-23T05:01:54.733Z,24.33
2022-08-23T05:02:26.162Z,24.35
2022-08-23T05:02:57.591Z,24.33
2022-08-23T05:03:29.027Z,24.34
2022-08-23T05:04:00.451Z,24.33
2022-08-23T05:04:31.884Z,24.33
2022-08-23T05:05:03.306Z,24.33
2022-08-23T05:05:35.792Z,24.32
2022-08-23T05:06:07.275Z,24.33
2022-08-23T05:06:38.768Z,24.32
2022-08-23T05:07:10.235Z,24.32
2022-08-23T05:07:43.091Z,24.32
2022-08-23T05:08:14.691Z,24.32
2022-08-23T05:08:46.125Z,24.32
2022-08-23T05:09:20.687Z,24.31
2022-08-23T05:09:52.346Z,24.31
2022-08-23T05:10:23.796Z,24.31
2022-08-23T05:10:55.249Z,24.32
2022-08-23T05:11:26.747Z,24.31
2022-08-23T05:11:58.167Z,24.32
2022-08-23T05:12:29.597Z,24.31
2022-08-23T05:13:01.043Z,24.30
2022-08-23T05:13:32.760Z,24.31
2022-08-23T05:14:06.259Z,24.31
2022-08-23T05:14:37.687Z,24.30
2022-08-23T05:15:09.112Z,24.31
2022-08-23T05:15:40.541Z,24.30
2022-08-23T05:16:12.041Z,24.31
2022-08-23T05:16:43.476Z,24.31
2022-08-23T05:17:14.908Z,24.29
2022-08-23T05:17:46.336Z,24.29
2022-08-23T05:18:17.768Z,24.31
2022-08-23T05:18:49.202Z,24.30
2022-08-23T05:19:20.619Z,24.30
2022-08-23T05:19:52.063Z,24.29
2022-08-23T05:20:23.492Z,24.29
2022-08-23T05:20:54.923Z,24.30
2022-08-23T05:21:28.048Z,24.29
2022-08-23T05:21:59.477Z,24.29
2022-08-23T05:22:30.900Z,24.30
2022-08-23T05:23:02.324Z,24.30
2022-08-23T05:23:33.753Z,24.30
2022-08-23T05:24:05.178Z,24.30
2022-08-23T05:24:36.600Z,24.30
2022-08-23T05:25:08.029Z,24.29
2022-08-23T05:25:39.461Z,24.29
2022-08-23T05:26:10.883Z,24.30
2022-08-23T05:26:42.359Z,24.29
2022-08-23T05:27:13.898Z,24.28
2022-08-23T05:27:45.341Z,24.29
2022-08-23T05:28:16.779Z,24.29
2022-08-23T05:28:48.210Z,24.29
2022-08-23T05:29:19.648Z,24.29
2022-08-23T05:29:51.081Z,24.29
2022-08-23T05:30:22.512Z,24.29
2022-08-23T05:30:56.520Z,24.29
2022-08-23T05:31:28.705Z,24.29
2022-08-23T05:32:00.289Z,24.28
2022-08-23T05:32:33.598Z,24.30
2022-08-23T05:33:05.277Z,24.29
2022-08-23T05:33:38.369Z,24.29
2022-08-23T05:34:09.803Z,24.28
2022-08-23T05:34:41.267Z,24.28
2022-08-23T05:35:12.709Z,24.28
2022-08-23T05:35:44.134Z,24.29
2022-08-23T05:36:15.559Z,24.29
2022-08-23T05:36:51.645Z,24.28
2022-08-23T05:37:27.289Z,24.29
2022-08-23T05:37:58.728Z,24.29
2022-08-23T05:38:30.156Z,24.28
2022-08-23T05:39:01.587Z,24.29
2022-08-23T05:39:36.578Z,24.28
2022-08-23T05:40:08.786Z,24.28
2022-08-23T05:40:40.287Z,24.27
2022-08-23T05:41:11.720Z,24.29
2022-08-23T05:41:43.149Z,24.28
2022-08-23T05:42:14.657Z,24.29
2022-08-23T05:42:46.084Z,24.28
2022-08-23T05:43:17.516Z,24.28
2022-08-23T05:43:50.152Z,24.29
2022-08-23T05:44:21.575Z,24.28
2022-08-23T05:44:53.332Z,24.28
2022-08-23T05:45:25.476Z,24.28
2022-08-23T05:45:57.302Z,24.28
2022-08-23T05:46:29.275Z,24.28
2022-08-23T05:47:01.899Z,24.29
2022-08-23T05:47:33.911Z,24.29
2022-08-23T05:48:05.424Z,24.28
2022-08-23T05:48:37.005Z,24.28
2022-08-23T05:49:08.439Z,24.29
2022-08-23T05:49:39.871Z,24.28
2022-08-23T05:50:11.300Z,24.28
2022-08-23T05:50:42.727Z,24.29
2022-08-23T05:51:14.156Z,24.28
2022-08-23T05:51:45.769Z,24.28
2022-08-23T05:52:23.123Z,24.28
2022-08-23T05:52:54.548Z,24.27
2022-08-23T05:53:26.835Z,24.28
2022-08-23T05:53:58.863Z,24.28
2022-08-23T05:54:32.116Z,24.28
2022-08-23T05:55:03.580Z,24.28
2022-08-23T05:55:35.306Z,24.28
2022-08-23T05:56:06.765Z,24.28
2022-08-23T05:56:38.313Z,24.27
2022-08-23T05:57:09.740Z,24.27
2022-08-23T05:57:41.271Z,24.25
2022-08-23T05:58:14.385Z,24.28
2022-08-23T05:58:45.837Z,24.26
2022-08-23T05:59:17.266Z,24.27
2022-08-23T05:59:48.708Z,24.25
2022-08-23T06:00:20.226Z,24.27
2022-08-23T06:00:51.909Z,24.27
2022-08-23T06:01:23.398Z,24.27
2022-08-23T06:01:54.857Z,24.27
2022-08-23T06:02:26.291Z,24.26
2022-08-23T06:02:57.800Z,24.27
2022-08-23T06:03:29.276Z,24.27
2022-08-23T06:04:00.704Z,24.27
2022-08-23T06:04:32.137Z,24.26
2022-08-23T06:05:03.574Z,24.27
2022-08-23T06:05:35.006Z,24.24
2022-08-23T06:06:06.460Z,24.26
2022-08-23T06:06:37.902Z,24.26
2022-08-23T06:07:09.353Z,24.25
2022-08-23T06:07:40.794Z,24.27
2022-08-23T06:08:12.370Z,24.27
2022-08-23T06:08:43.804Z,24.27
2022-08-23T06:09:15.262Z,24.25
2022-08-23T06:09:46.782Z,24.25
2022-08-23T06:10:18.223Z,24.26
2022-08-23T06:10:49.663Z,24.25
2022-08-23T06:11:21.207Z,24.25
2022-08-23T06:11:54.936Z,24.26
2022-08-23T06:12:26.453Z,24.26
2022-08-23T06:12:57.884Z,24.28
2022-08-23T06:13:29.911Z,24.27
2022-08-23T06:14:01.436Z,24.28
2022-08-23T06:14:32.985Z,24.28
2022-08-23T06:15:04.511Z,24.29
2022-08-23T06:15:35.946Z,24.27
2022-08-23T06:16:14.644Z,24.27
2022-08-23T06:16:46.813Z,24.28
2022-08-23T06:17:18.763Z,24.29
2022-08-23T06:17:50.291Z,24.28
2022-08-23T06:18:21.823Z,24.29
2022-08-23T06:18:53.485Z,24.29
2022-08-23T06:19:25.917Z,24.29
2022-08-23T06:19:58.583Z,24.30
2022-08-23T06:20:30.356Z,24.30
2022-08-23T06:21:02.182Z,24.31
2022-08-23T06:21:33.722Z,24.31
2022-08-23T06:22:05.357Z,24.32
2022-08-23T06:22:36.803Z,24.31
2022-08-23T06:23:08.358Z,24.32
2022-08-23T06:23:43.501Z,24.33
2022-08-23T06:24:15.190Z,24.32
2022-08-23T06:24:46.822Z,24.33
2022-08-23T06:25:18.333Z,24.34
2022-08-23T06:25:49.849Z,24.33
2022-08-23T06:26:21.655Z,24.32
2022-08-23T06:26:53.353Z,24.34
2022-08-23T06:27:24.828Z,24.34
2022-08-23T06:27:56.611Z,24.34
2022-08-23T06:28:28.517Z,24.35
2022-08-23T06:29:01.118Z,24.34
2022-08-23T06:29:32.667Z,24.35
2022-08-23T06:30:04.208Z,24.35
2022-08-23T06:30:39.706Z,24.34
2022-08-23T06:31:11.610Z,24.36
2022-08-23T06:31:43.186Z,24.34
2022-08-23T06:32:14.790Z,24.35
2022-08-23T06:32:46.446Z,24.34
2022-08-23T06:33:18.017Z,24.36
2022-08-23T06:33:49.554Z,24.36
2022-08-23T06:34:21.041Z,24.37
2022-08-23T06:34:52.576Z,24.37
2022-08-23T06:35:44.049Z,24.36
2022-08-23T06:36:15.479Z,24.37
2022-08-23T06:36:46.921Z,24.38
2022-08-23T06:37:18.421Z,24.38
2022-08-23T06:37:50.048Z,24.39
2022-08-23T06:38:21.518Z,24.38
2022-08-23T06:38:52.956Z,24.38
2022-08-23T06:39:24.468Z,24.39
2022-08-23T06:39:56.069Z,24.39
2022-08-23T06:40:27.591Z,24.41
2022-08-23T06:40:59.117Z,24.41
2022-08-23T06:41:30.675Z,24.42
2022-08-23T06:42:02.189Z,24.42
2022-08-23T06:42:40.725Z,24.42
2022-08-23T06:43:12.177Z,24.42
2022-08-23T06:43:43.617Z,24.43
2022-08-23T06:44:15.055Z,24.43
2022-08-23T06:44:46.536Z,24.43
2022-08-23T06:45:17.980Z,24.43
2022-08-23T06:45:53.784Z,24.44
2022-08-23T06:46:29.688Z,24.44
2022-08-23T06:47:01.181Z,24.44
2022-08-23T06:47:32.655Z,24.44
2022-08-23T06:48:05.745Z,24.45
2022-08-23T06:48:37.169Z,24.45
2022-08-23T06:49:08.602Z,24.44
2022-08-23T06:49:40.027Z,24.46
2022-08-23T06:50:22.634Z,24.46
2022-08-23T06:50:54.813Z,24.46
2022-08-23T06:51:26.639Z,24.46
2022-08-23T06:51:58.187Z,24.46
2022-08-23T06:52:29.618Z,24.48